Preview of NWS' New Version of Forecast
This preview is not operational and should not be used for support decisions.

Terminal Aerodrome Forecast (TAF)

Issued by National Weather Service (NWS)

                            
000
FTUS42 KKEY 201729
TAFEYW
TAF
KEYW 201729Z 2018/2118 32018G26KT P6SM SCT030
     FM210600 34014G22KT P6SM FEW035
     FM211200 02012G20KT P6SM SKC=